Time;durP1;ratioP1;P1;durP2;ratioP2;P2;SDS_P1;SDS_P2;PMS_P1;PMS_P2;Temp;Humidity;BMP_temperature;BMP_pressure;BME280_temperature;BME280_humidity;BME280_pressure;Samples;Min_cycle;Max_cycle;Signal;HPM_P1;HPM_P2
2022/03/21 00:02:04;;;;;;;;;60.00;48.25;;;;;12.67;45.59;102280.25;5000037;28;45337;-71
2022/03/21 00:04:29;;;;;;;;;62.75;49.25;;;;;12.65;44.88;102274.94;4992871;28;45350;-71
2022/03/21 00:06:55;;;;;;;;;62.50;50.00;;;;;12.58;45.17;102258.06;4989585;28;45337;-71
2022/03/21 00:09:20;;;;;;;;;58.50;47.75;;;;;12.58;45.36;102267.91;4993308;28;45272;-71
2022/03/21 00:11:45;;;;;;;;;57.50;46.25;;;;;12.58;45.61;102274.13;4991405;28;45504;-71
2022/03/21 00:14:11;;;;;;;;;63.50;50.25;;;;;12.58;45.60;102276.81;4995754;28;45585;-71
2022/03/21 00:16:38;;;;;;;;;56.50;47.25;;;;;12.57;45.75;102269.69;4991033;28;45388;-70
2022/03/21 00:19:04;;;;;;;;;55.25;47.00;;;;;12.59;45.85;102275.88;4989523;28;45344;-71
2022/03/21 00:21:30;;;;;;;;;63.75;48.75;;;;;12.60;45.79;102277.66;4994166;28;45304;-71
2022/03/21 00:23:55;;;;;;;;;60.50;49.50;;;;;12.60;45.96;102275.00;4991409;28;45278;-71
2022/03/21 00:26:21;;;;;;;;;57.75;46.75;;;;;12.54;45.93;102269.72;4991395;28;45341;-71
2022/03/21 00:28:46;;;;;;;;;57.50;47.00;;;;;12.52;45.73;102266.19;4989472;28;45158;-70
2022/03/21 00:31:12;;;;;;;;;58.75;47.50;;;;;12.60;46.00;102276.78;4993831;28;45307;-71
2022/03/21 00:33:37;;;;;;;;;55.75;46.50;;;;;12.59;45.98;102273.22;4996119;28;45232;-70
2022/03/21 00:36:04;;;;;;;;;56.00;45.75;;;;;12.63;45.80;102286.56;4991566;28;45340;-71
2022/03/21 00:38:30;;;;;;;;;59.50;47.75;;;;;12.52;45.98;102271.56;4989173;28;45767;-71
2022/03/21 00:40:55;;;;;;;;;58.50;48.50;;;;;12.45;46.14;102264.53;4993139;28;45359;-71
2022/03/21 00:43:23;;;;;;;;;57.75;46.00;;;;;12.52;46.24;102273.34;4990294;28;45495;-71
2022/03/21 00:45:52;;;;;;;;;54.50;45.75;;;;;12.53;46.20;102281.38;5001725;28;45934;-71
2022/03/21 00:48:18;;;;;;;;;58.00;46.75;;;;;12.42;46.15;102268.13;4991111;28;45225;-71
2022/03/21 00:50:44;;;;;;;;;60.75;48.50;;;;;12.49;45.91;102274.28;4994570;28;45581;-71
2022/03/21 00:53:10;;;;;;;;;59.50;47.00;;;;;12.56;46.17;102278.66;4987520;28;45527;-71
2022/03/21 00:55:36;;;;;;;;;57.25;47.25;;;;;12.52;45.98;102278.72;4995322;28;45431;-70
2022/03/21 00:58:02;;;;;;;;;60.00;48.25;;;;;12.56;46.26;102281.31;4994200;28;45401;-70
2022/03/21 01:00:29;;;;;;;;;55.00;46.00;;;;;12.53;46.29;102276.00;4988977;28;45587;-71
2022/03/21 01:02:57;;;;;;;;;54.00;44.50;;;;;12.56;45.99;102277.75;4990145;28;45333;-71
2022/03/21 01:05:23;;;;;;;;;58.25;46.25;;;;;12.55;46.16;102270.63;4987619;28;46201;-71
2022/03/21 01:07:50;;;;;;;;;56.75;47.00;;;;;12.51;46.28;102264.44;4989597;28;45323;-71
2022/03/21 01:10:18;;;;;;;;;60.25;47.00;;;;;12.51;46.24;102277.84;4994518;28;45367;-70
2022/03/21 01:12:44;;;;;;;;;54.50;44.00;;;;;12.46;46.46;102271.63;4982594;28;45545;-71
2022/03/21 01:15:13;;;;;;;;;60.25;47.00;;;;;12.38;46.30;102273.59;4985525;28;45302;-71
2022/03/21 01:17:39;;;;;;;;;57.00;47.00;;;;;12.39;46.42;102275.34;4990524;28;45711;-71
2022/03/21 01:20:05;;;;;;;;;59.25;47.75;;;;;12.33;46.65;102272.75;4982411;28;45377;-71
2022/03/21 01:22:30;;;;;;;;;56.75;46.00;;;;;12.38;46.63;102277.13;4981905;28;45484;-71
2022/03/21 01:24:55;;;;;;;;;52.75;44.75;;;;;12.34;46.76;102267.38;4986580;28;45532;-70
2022/03/21 01:27:21;;;;;;;;;59.50;45.75;;;;;12.40;46.53;102274.44;4999624;28;45269;-71
2022/03/21 01:29:47;;;;;;;;;55.75;45.50;;;;;12.41;46.82;102273.50;4983191;28;45588;-71
2022/03/21 01:32:12;;;;;;;;;55.00;45.25;;;;;12.42;46.74;102278.84;4997635;28;45515;-71
2022/03/21 01:34:38;;;;;;;;;55.00;46.50;;;;;12.35;46.61;102268.28;4982538;28;46098;-71
2022/03/21 01:37:03;;;;;;;;;53.50;44.00;;;;;12.35;46.72;102263.78;4988075;28;45437;-71
2022/03/21 01:39:28;;;;;;;;;58.00;47.00;;;;;12.33;46.51;102267.38;4986679;28;45330;-70
2022/03/21 01:41:54;;;;;;;;;55.25;46.00;;;;;12.28;46.72;102261.22;4999221;28;45403;-71
2022/03/21 01:44:20;;;;;;;;;51.00;42.75;;;;;12.29;46.68;102268.34;4994167;28;48132;-70
2022/03/21 01:46:46;;;;;;;;;57.25;46.75;;;;;12.29;46.87;102269.22;5000066;28;45522;-70
2022/03/21 01:49:13;;;;;;;;;58.75;47.00;;;;;12.34;46.98;102272.72;5000653;28;45233;-71
2022/03/21 01:51:41;;;;;;;;;58.50;45.50;;;;;12.37;46.95;102274.47;4987709;28;45242;-71
2022/03/21 01:56:52;;;;;;;;;57.00;46.25;;;;;12.28;47.08;102264.81;4992062;28;45876;-71
2022/03/21 01:59:19;;;;;;;;;53.75;42.00;;;;;12.31;47.07;102278.16;4987822;28;45288;-71
2022/03/21 02:01:45;;;;;;;;;53.50;44.25;;;;;12.31;46.98;102275.47;4999763;28;45467;-71
2022/03/21 02:04:11;;;;;;;;;62.50;48.50;;;;;12.27;46.93;102276.41;4996464;28;45370;-71
2022/03/21 02:06:37;;;;;;;;;60.25;47.75;;;;;12.19;47.33;102273.84;4992140;28;45154;-70
2022/03/21 02:09:05;;;;;;;;;54.75;44.75;;;;;12.24;47.18;102271.09;4988009;28;45241;-71
2022/03/21 02:11:32;;;;;;;;;57.00;45.25;;;;;12.25;47.05;102269.31;4999483;28;45537;-71
2022/03/21 02:13:59;;;;;;;;;59.75;46.75;;;;;12.22;47.19;102276.47;4999393;28;47322;-71
2022/03/21 02:16:29;;;;;;;;;56.75;43.75;;;;;12.30;47.13;102275.50;4996838;28;45835;-71
2022/03/21 02:18:58;;;;;;;;;56.75;46.25;;;;;12.27;47.10;102265.69;4981598;28;45271;-71
2022/03/21 02:21:30;;;;;;;;;54.00;45.25;;;;;12.29;47.34;102269.22;4998164;28;45319;-71
2022/03/21 02:24:02;;;;;;;;;58.00;46.50;;;;;12.21;47.41;102250.63;5000471;28;45585;-71
2022/03/21 02:26:29;;;;;;;;;56.75;47.00;;;;;12.27;47.42;102260.34;4994564;28;45368;-71
2022/03/21 02:28:57;;;;;;;;;56.50;45.75;;;;;12.28;47.52;102258.53;4994065;28;45342;-71
2022/03/21 02:31:23;;;;;;;;;60.25;48.25;;;;;12.34;47.73;102270.03;4986266;28;45418;-71
2022/03/21 02:33:50;;;;;;;;;55.25;45.25;;;;;12.35;47.45;102269.16;5000412;28;46178;-71
2022/03/21 02:36:17;;;;;;;;;59.50;47.50;;;;;12.31;47.50;102248.69;4986358;28;45450;-71
2022/03/21 02:38:44;;;;;;;;;55.00;46.00;;;;;12.35;47.78;102261.13;4995358;28;45237;-71
2022/03/21 02:41:12;;;;;;;;;54.25;44.75;;;;;12.27;47.43;102244.28;4985362;28;45266;-71
2022/03/21 02:43:54;;;;;;;;;60.25;48.25;;;;;12.37;47.59;102261.09;4992838;28;46183;-71
2022/03/21 02:46:20;;;;;;;;;58.25;46.25;;;;;12.35;47.94;102252.22;4995727;28;45257;-71
2022/03/21 02:48:46;;;;;;;;;59.75;47.50;;;;;12.32;47.63;102246.91;4988647;28;45313;-71
2022/03/21 02:51:12;;;;;;;;;58.25;48.25;;;;;12.26;47.97;102230.91;4999615;28;45543;-71
2022/03/21 02:53:39;;;;;;;;;58.25;46.75;;;;;12.28;47.44;102238.03;4989578;28;47722;-70
2022/03/21 02:56:05;;;;;;;;;58.25;46.25;;;;;12.27;47.76;102240.72;4990758;28;45395;-71
2022/03/21 02:58:30;;;;;;;;;54.50;43.75;;;;;12.34;47.97;102253.09;4995419;28;45391;-71
2022/03/21 03:01:07;;;;;;;;;59.00;47.50;;;;;12.29;47.96;102242.44;4984454;28;45261;-70
2022/03/21 03:03:32;;;;;;;;;52.00;44.00;;;;;12.29;47.92;102238.91;4987260;28;45356;-71
2022/03/21 03:05:58;;;;;;;;;55.00;45.00;;;;;12.32;47.89;102249.56;4986823;28;45229;-71
2022/03/21 03:08:23;;;;;;;;;58.25;45.00;;;;;12.30;47.99;102246.03;5000160;28;45485;-71
2022/03/21 03:10:48;;;;;;;;;56.00;46.25;;;;;12.28;48.13;102248.75;4988150;28;45202;-70
2022/03/21 03:13:14;;;;;;;;;59.00;47.00;;;;;12.34;48.04;102253.97;4979485;28;45340;-71
2022/03/21 03:15:39;;;;;;;;;53.00;43.50;;;;;12.35;47.87;102257.56;4991287;28;45888;-71
2022/03/21 03:18:05;;;;;;;;;52.25;43.00;;;;;12.30;48.15;102246.03;4989562;28;45246;-71
2022/03/21 03:20:30;;;;;;;;;51.50;43.25;;;;;12.28;47.96;102245.16;4999905;28;45414;-71
2022/03/21 03:22:57;;;;;;;;;57.75;47.75;;;;;12.36;48.02;102256.63;4983840;28;45437;-71
2022/03/21 03:25:23;;;;;;;;;56.50;45.50;;;;;12.36;47.85;102256.63;4999925;28;45797;-71
2022/03/21 03:27:48;;;;;;;;;57.75;46.00;;;;;12.29;48.17;102244.25;4995913;28;45442;-71
2022/03/21 03:30:13;;;;;;;;;61.75;49.50;;;;;12.26;47.89;102242.50;4998598;28;45465;-71
2022/03/21 03:32:40;;;;;;;;;57.50;45.50;;;;;12.35;48.38;102258.44;4999742;28;45313;-71
2022/03/21 03:35:06;;;;;;;;;58.75;46.75;;;;;12.32;48.06;102247.78;4999757;28;45447;-71
2022/03/21 03:37:31;;;;;;;;;60.25;47.00;;;;;12.29;48.33;102252.28;4992361;28;45343;-71
2022/03/21 03:39:57;;;;;;;;;58.50;46.25;;;;;12.37;47.95;102263.78;4991262;28;45336;-71
2022/03/21 03:42:22;;;;;;;;;54.25;44.75;;;;;12.26;48.26;102252.34;4990439;28;46278;-71
2022/03/21 03:44:47;;;;;;;;;58.00;46.25;;;;;12.29;48.08;102265.69;4996068;28;45233;-71
2022/03/21 03:47:13;;;;;;;;;56.25;46.00;;;;;12.31;48.09;102271.88;5000091;28;45406;-71
2022/03/21 03:49:38;;;;;;;;;56.00;45.75;;;;;12.27;48.03;102262.16;4999316;28;45212;-71
2022/03/21 03:52:04;;;;;;;;;59.00;47.25;;;;;12.29;48.24;102268.34;4998549;28;46395;-71
2022/03/21 03:54:29;;;;;;;;;57.00;47.00;;;;;12.25;48.31;102261.28;4996025;28;45177;-71
2022/03/21 03:56:54;;;;;;;;;56.50;46.00;;;;;12.30;48.35;102272.81;4999789;28;45444;-71
2022/03/21 03:59:20;;;;;;;;;54.25;45.00;;;;;12.31;48.58;102274.56;4999485;28;45526;-71
2022/03/21 04:01:45;;;;;;;;;59.00;46.75;;;;;12.20;48.66;102253.31;4998197;28;47427;-71
2022/03/21 04:04:10;;;;;;;;;57.50;46.00;;;;;12.30;48.84;102279.03;4999182;28;45305;-71
2022/03/21 04:06:36;;;;;;;;;55.50;46.00;;;;;12.31;48.51;102277.25;4999520;28;45719;-71
2022/03/21 04:09:02;;;;;;;;;58.00;46.00;;;;;12.31;48.44;102271.88;4997985;28;45924;-71
2022/03/21 04:11:27;;;;;;;;;59.25;47.25;;;;;12.31;49.02;102279.91;4991023;28;46315;-71
2022/03/21 04:13:53;;;;;;;;;57.75;45.75;;;;;12.28;48.60;102271.94;4980168;28;45360;-71
2022/03/21 04:16:18;;;;;;;;;62.75;46.75;;;;;12.26;48.92;102271.06;4998045;28;45307;-71
2022/03/21 04:18:44;;;;;;;;;54.75;43.50;;;;;12.33;48.76;102283.44;4985578;28;45280;-71
2022/03/21 04:21:09;;;;;;;;;56.25;47.00;;;;;12.31;48.65;102274.56;4986686;28;45367;-71
2022/03/21 04:23:35;;;;;;;;;57.75;45.75;;;;;12.26;48.89;102263.03;4987041;28;45446;-71
2022/03/21 04:26:01;;;;;;;;;54.25;44.25;;;;;12.31;48.82;102282.59;5002316;28;45379;-71
2022/03/21 04:28:26;;;;;;;;;54.00;43.00;;;;;12.31;48.86;102279.91;4989194;28;45250;-71
2022/03/21 04:30:52;;;;;;;;;52.75;44.50;;;;;12.36;49.05;102295.03;5002596;28;45345;-71
2022/03/21 04:33:17;;;;;;;;;55.75;45.75;;;;;12.30;48.97;102287.06;4989487;28;45242;-71
2022/03/21 04:35:44;;;;;;;;;56.75;46.25;;;;;12.39;49.22;102302.13;5002595;28;45560;-71
2022/03/21 04:38:14;;;;;;;;;56.50;46.50;;;;;12.40;49.20;102302.09;4987977;28;45463;-71
2022/03/21 04:40:45;;;;;;;;;57.25;44.75;;;;;12.40;49.10;102299.41;4996592;28;47393;-71
2022/03/21 04:43:11;;;;;;;;;53.00;45.50;;;;;12.46;48.91;102308.25;4990188;28;45703;-70
2022/03/21 04:45:37;;;;;;;;;54.00;44.50;;;;;12.44;49.23;102304.72;5001015;28;45423;-71
2022/03/21 04:48:04;;;;;;;;;55.00;46.00;;;;;12.37;48.85;102299.47;4995071;28;45388;-71
2022/03/21 04:50:30;;;;;;;;;58.00;45.75;;;;;12.45;48.81;102309.19;4983196;28;46210;-71
2022/03/21 04:52:56;;;;;;;;;57.75;47.25;;;;;12.42;49.24;102310.09;4994917;28;45418;-71
2022/03/21 04:55:21;;;;;;;;;57.00;46.75;;;;;12.39;49.30;102313.69;4995859;28;45248;-71
2022/03/21 04:57:46;;;;;;;;;55.50;46.50;;;;;12.43;49.10;102319.91;4988907;28;45531;-71
2022/03/21 05:00:13;;;;;;;;;55.25;46.25;;;;;12.46;49.53;102324.31;5001174;28;45590;-71
2022/03/21 05:02:39;;;;;;;;;59.50;47.25;;;;;12.45;49.23;102319.91;4982527;28;45316;-71
2022/03/21 05:05:04;;;;;;;;;56.75;46.00;;;;;12.47;49.23;102324.31;4995249;28;45186;-71
2022/03/21 05:07:30;;;;;;;;;58.50;47.25;;;;;12.47;49.27;102321.63;4994279;28;45496;-71
2022/03/21 05:09:55;;;;;;;;;56.50;46.75;;;;;12.42;49.18;102323.50;4994414;28;45989;-71
2022/03/21 05:12:20;;;;;;;;;57.00;46.00;;;;;12.35;49.20;102303.09;4987482;28;45322;-71
2022/03/21 05:14:46;;;;;;;;;52.75;44.75;;;;;12.42;49.76;102315.47;4992755;28;45399;-71
2022/03/21 05:17:12;;;;;;;;;55.50;46.75;;;;;12.47;49.30;102320.75;4995148;28;45311;-71
2022/03/21 05:19:38;;;;;;;;;56.25;45.25;;;;;12.46;49.43;102324.31;4990297;28;45903;-71
2022/03/21 05:22:06;;;;;;;;;49.25;39.75;;;;;12.46;49.38;102325.19;4998310;28;45327;-71
2022/03/21 05:35:52;;;;;;;;;54.00;44.00;;;;;12.46;49.97;102316.28;4991703;28;45233;-71
2022/03/21 05:38:17;;;;;;;;;59.50;48.50;;;;;12.52;49.75;102330.47;4996634;28;45385;-71
2022/03/21 05:40:42;;;;;;;;;57.00;45.00;;;;;12.49;49.56;102329.66;4991210;28;45366;-71
2022/03/21 05:43:08;;;;;;;;;51.00;42.25;;;;;12.57;49.77;102336.66;4989741;28;45286;-71
2022/03/21 05:45:33;;;;;;;;;47.75;40.00;;;;;12.58;49.92;102338.44;4994687;28;45332;-71
2022/03/21 05:50:43;;;;;;;;;55.25;44.25;;;;;12.57;49.97;102339.31;5001054;28;45872;-71
2022/03/21 05:53:09;;;;;;;;;57.00;47.00;;;;;12.51;49.62;102330.50;4986378;28;45311;-71
2022/03/21 05:55:35;;;;;;;;;56.75;46.00;;;;;12.52;50.05;102338.50;4982003;28;45360;-71
2022/03/21 05:58:00;;;;;;;;;59.00;46.00;;;;;12.52;50.03;102341.19;4996360;28;45244;-71
2022/03/21 06:00:26;;;;;;;;;49.00;41.25;;;;;12.47;50.12;102347.53;4993416;28;46202;-71
2022/03/21 06:02:53;;;;;;;;;52.50;45.00;;;;;12.43;50.04;102344.03;4986993;28;45431;-71
2022/03/21 06:05:19;;;;;;;;;56.25;44.75;;;;;12.44;50.34;102353.81;5001037;28;45403;-70
2022/03/21 06:07:46;;;;;;;;;56.00;45.50;;;;;12.41;50.06;102351.16;4991173;28;45471;-71
2022/03/21 06:10:12;;;;;;;;;52.75;43.00;;;;;12.45;50.20;102363.63;4999796;28;45348;-71
2022/03/21 06:12:40;;;;;;;;;55.75;44.25;;;;;12.42;50.36;102361.00;4990579;28;45509;-70
2022/03/21 06:15:06;;;;;;;;;51.25;42.25;;;;;12.43;50.24;102362.78;4995155;28;45347;-70
2022/03/21 06:17:43;;;;;;;;;56.75;45.25;;;;;12.42;50.26;102369.03;4994080;28;45488;-70
2022/03/21 06:20:14;;;;;;;;;57.75;46.25;;;;;12.38;50.41;102365.50;4980745;28;45404;-68
2022/03/21 06:22:40;;;;;;;;;51.00;43.00;;;;;12.35;50.55;102370.03;4983979;28;45943;-68
2022/03/21 06:25:07;;;;;;;;;55.00;44.75;;;;;12.39;50.47;102382.44;4994372;28;45318;-69
2022/03/21 06:27:40;;;;;;;;;60.50;48.00;;;;;12.30;50.33;102377.25;4998962;28;45378;-68
2022/03/21 06:30:08;;;;;;;;;56.00;45.75;;;;;12.31;50.65;102389.69;4996575;28;45532;-68
2022/03/21 06:32:34;;;;;;;;;59.50;46.00;;;;;12.30;50.61;102379.91;4987389;28;45533;-68
2022/03/21 06:35:00;;;;;;;;;49.75;42.75;;;;;12.30;50.93;102387.94;4988298;28;46396;-68
2022/03/21 06:37:25;;;;;;;;;53.25;42.75;;;;;12.27;50.76;102385.31;4992368;28;45492;-68
2022/03/21 06:39:50;;;;;;;;;57.25;45.75;;;;;12.29;51.04;102394.19;5008922;28;48015;-68
2022/03/21 06:42:17;;;;;;;;;58.00;45.50;;;;;12.31;50.70;102400.41;4987541;28;45372;-68
2022/03/21 06:44:42;;;;;;;;;57.50;45.00;;;;;12.33;50.73;102403.94;4993809;28;45328;-68
2022/03/21 06:47:09;;;;;;;;;51.25;44.00;;;;;12.30;51.30;102398.66;4980660;28;45301;-69
2022/03/21 06:49:35;;;;;;;;;56.25;45.25;;;;;12.27;51.07;102407.59;4986863;28;46501;-68
2022/03/21 06:52:02;;;;;;;;;58.50;45.00;;;;;12.30;51.22;102407.56;4997209;28;45896;-67
2022/03/21 06:54:29;;;;;;;;;59.75;46.00;;;;;12.25;50.89;102403.19;4983971;28;45480;-68
2022/03/21 06:56:55;;;;;;;;;57.50;45.25;;;;;12.31;51.22;102424.50;4993712;28;45526;-67
2022/03/21 06:59:20;;;;;;;;;58.75;46.50;;;;;12.26;51.29;102410.28;4985527;28;45604;-67
2022/03/21 07:01:46;;;;;;;;;59.00;45.75;;;;;12.31;51.05;102424.50;4994241;28;45490;-67
2022/03/21 07:04:11;;;;;;;;;56.50;44.50;;;;;12.27;51.18;102423.66;4992317;28;45612;-67
2022/03/21 07:06:36;;;;;;;;;55.00;46.25;;;;;12.21;51.41;102399.63;4979890;28;45355;-66
2022/03/21 07:09:02;;;;;;;;;55.25;45.25;;;;;12.36;51.13;102428.91;4997740;28;45428;-67
2022/03/21 07:11:29;;;;;;;;;57.75;45.75;;;;;12.32;51.58;102420.94;5010653;28;45312;-67
2022/03/21 07:13:54;;;;;;;;;55.50;43.75;;;;;12.36;51.13;102414.63;4988696;28;45478;-67
2022/03/21 07:16:19;;;;;;;;;56.25;46.50;;;;;12.39;50.95;102426.19;4991283;28;45475;-67
2022/03/21 07:18:45;;;;;;;;;51.25;41.00;;;;;12.41;51.29;102436.88;4980308;28;46164;-67
2022/03/21 07:21:13;;;;;;;;;54.75;45.00;;;;;12.39;51.33;102436.88;4991696;28;45384;-66
2022/03/21 07:23:39;;;;;;;;;50.50;41.75;;;;;12.39;51.21;102430.66;4988066;28;45501;-67
2022/03/21 07:26:04;;;;;;;;;51.50;43.25;;;;;12.39;51.35;102427.97;4993370;28;45328;-67
2022/03/21 07:28:31;;;;;;;;;53.50;43.25;;;;;12.39;51.25;102426.19;4988721;28;46153;-67
2022/03/21 07:30:57;;;;;;;;;59.00;46.50;;;;;12.40;51.22;102433.31;4986752;28;45309;-67
2022/03/21 07:33:22;;;;;;;;;54.50;44.00;;;;;12.40;51.80;102430.63;4993440;28;45332;-67
2022/03/21 07:35:47;;;;;;;;;56.00;46.00;;;;;12.39;51.70;102430.66;5008116;28;45400;-67
2022/03/21 07:38:13;;;;;;;;;48.50;39.25;;;;;12.39;51.58;102426.19;4981638;28;46060;-67
2022/03/21 07:40:39;;;;;;;;;49.00;41.00;;;;;12.31;51.80;102422.75;4980406;28;45287;-67
2022/03/21 07:43:04;;;;;;;;;53.00;42.75;;;;;12.35;51.55;102426.25;4980087;28;45328;-67
2022/03/21 07:48:14;;;;;;;;;54.00;43.00;;;;;12.35;51.71;102424.47;4979656;28;45761;-70
2022/03/21 07:50:41;;;;;;;;;48.75;42.00;;;;;12.42;51.70;102438.66;4989233;28;45521;-71
2022/03/21 07:53:07;;;;;;;;;44.00;36.50;;;;;12.44;51.81;102428.81;4988548;28;45487;-70
2022/03/21 07:55:33;;;;;;;;;48.25;41.50;;;;;12.40;51.65;102430.63;4980337;28;45486;-72
2022/03/21 07:57:59;;;;;;;;;45.50;38.00;;;;;12.48;51.52;102443.03;4994593;28;46472;-72
2022/03/21 08:00:26;;;;;;;;;50.50;41.00;;;;;12.49;51.69;102439.47;4986601;28;45324;-72
2022/03/21 08:02:52;;;;;;;;;48.75;40.25;;;;;12.52;51.94;102440.31;4996517;28;45462;-71
2022/03/21 08:05:18;;;;;;;;;51.50;43.00;;;;;12.46;51.61;102423.44;5000350;28;45223;-71
2022/03/21 08:07:43;;;;;;;;;45.75;38.50;;;;;12.59;51.40;102443.78;4990971;28;46723;-70
2022/03/21 08:10:12;;;;;;;;;50.00;39.00;;;;;12.60;51.75;102446.44;4990323;28;45336;-70
2022/03/21 08:12:42;;;;;;;;;42.25;36.75;;;;;12.61;50.99;102441.97;5001079;28;45486;-71
2022/03/21 08:15:08;;;;;;;;;50.50;40.75;;;;;12.69;51.72;102448.09;4982440;28;45519;-71
2022/03/21 08:17:50;;;;;;;;;43.25;38.00;;;;;12.66;51.36;102447.25;4986495;28;45261;-71
2022/03/21 08:20:18;;;;;;;;;48.00;39.25;;;;;12.75;51.61;102449.81;4990992;28;45284;-71
2022/03/21 08:22:43;;;;;;;;;45.75;39.25;;;;;12.79;51.57;102454.22;4987298;28;45625;-71
2022/03/21 08:25:09;;;;;;;;;47.75;40.50;;;;;12.87;51.11;102448.75;4989907;28;45494;-71
2022/03/21 08:27:36;;;;;;;;;43.25;38.00;;;;;12.84;51.28;102443.44;5000574;28;45410;-71
2022/03/21 08:30:01;;;;;;;;;46.50;37.50;;;;;12.87;51.24;102455.00;4991469;28;45153;-71
2022/03/21 08:32:27;;;;;;;;;43.00;36.75;;;;;12.82;51.08;102451.50;5000913;28;45422;-71
2022/03/21 08:34:52;;;;;;;;;41.00;36.00;;;;;12.89;51.12;102454.97;4982823;28;45308;-72
2022/03/21 08:37:18;;;;;;;;;33.25;31.00;;;;;12.92;51.06;102454.94;4997587;28;46504;-72
2022/03/21 08:39:43;;;;;;;;;46.25;38.00;;;;;12.94;51.17;102453.13;5003389;28;45350;-70
2022/03/21 08:42:08;;;;;;;;;40.50;34.50;;;;;13.01;50.93;102454.78;4983423;28;45375;-69
2022/03/21 08:44:34;;;;;;;;;41.00;35.50;;;;;13.08;50.95;102460.94;4993323;28;45285;-69
2022/03/21 08:46:59;;;;;;;;;35.00;29.00;;;;;13.12;50.79;102465.34;4989005;28;45442;-69
2022/03/21 08:49:26;;;;;;;;;35.75;32.50;;;;;13.13;50.69;102461.75;5002349;28;45340;-69
2022/03/21 08:51:52;;;;;;;;;35.75;31.00;;;;;13.14;50.87;102452.81;4990332;28;45382;-70
2022/03/21 08:54:17;;;;;;;;;37.75;33.50;;;;;13.22;50.61;102453.56;4992464;28;45505;-70
2022/03/21 08:56:43;;;;;;;;;39.25;35.00;;;;;13.27;50.87;102454.38;4991781;28;45809;-70
2022/03/21 08:59:08;;;;;;;;;42.75;37.75;;;;;13.37;50.20;102465.00;4985912;28;45805;-69
2022/03/21 09:01:34;;;;;;;;;40.50;36.25;;;;;13.36;50.64;102449.81;4980967;28;45411;-69
2022/03/21 09:04:02;;;;;;;;;40.50;34.75;;;;;13.42;50.78;102455.09;4995641;28;45299;-69
2022/03/21 09:06:28;;;;;;;;;41.50;33.50;;;;;13.52;50.61;102454.00;4989320;28;46179;-69
2022/03/21 09:08:54;;;;;;;;;35.50;32.00;;;;;13.58;50.69;102453.00;4993627;28;45386;-67
2022/03/21 09:11:19;;;;;;;;;39.75;34.00;;;;;13.67;50.46;102452.84;4993115;28;45467;-69
2022/03/21 09:13:47;;;;;;;;;37.50;33.25;;;;;13.75;50.38;102455.38;4989643;28;45495;-68
2022/03/21 09:16:13;;;;;;;;;33.25;32.00;;;;;13.78;50.14;102441.91;4991811;28;46352;-69
2022/03/21 09:18:39;;;;;;;;;39.75;34.50;;;;;13.87;50.07;102449.81;4988325;28;45884;-69
2022/03/21 09:21:05;;;;;;;;;37.25;32.00;;;;;13.93;49.87;102449.66;4997444;28;45381;-62
2022/03/21 09:23:33;;;;;;;;;32.75;31.50;;;;;13.96;49.81;102438.88;4987378;28;45561;-62
2022/03/21 09:26:00;;;;;;;;;26.50;26.50;;;;;13.94;49.96;102432.66;4986964;28;47238;-68
2022/03/21 09:28:26;;;;;;;;;40.00;34.75;;;;;14.09;49.55;102442.22;4994339;28;45336;-68
2022/03/21 09:30:52;;;;;;;;;31.00;27.75;;;;;14.11;49.10;102434.13;4986912;28;45344;-67
2022/03/21 09:33:17;;;;;;;;;29.00;28.50;;;;;14.17;48.94;102439.38;4990766;28;45505;-68
2022/03/21 09:35:43;;;;;;;;;31.00;29.75;;;;;14.20;49.18;102436.59;4999689;28;47082;-71
2022/03/21 09:38:10;;;;;;;;;29.75;29.00;;;;;14.25;49.04;102440.13;4989036;28;45466;-73
2022/03/21 09:40:36;;;;;;;;;34.00;31.75;;;;;14.31;48.80;102442.66;4999659;28;45453;-72
2022/03/21 09:43:01;;;;;;;;;35.50;31.25;;;;;14.38;48.98;102436.25;4988858;28;45569;-72
2022/03/21 09:45:27;;;;;;;;;31.25;28.50;;;;;14.41;49.16;102438.84;4994600;28;46023;-72
2022/03/21 09:48:09;;;;;;;;;29.75;28.25;;;;;14.44;48.76;102430.72;4989259;28;45463;-73
2022/03/21 09:50:40;;;;;;;;;36.25;32.50;;;;;14.58;48.42;102442.97;4997140;28;45409;-72
2022/03/21 09:53:07;;;;;;;;;34.25;29.00;;;;;14.59;48.42;102432.22;4992354;28;45466;-72
2022/03/21 09:55:32;;;;;;;;;29.00;26.50;;;;;14.67;48.54;102439.22;4995782;28;45329;-72
2022/03/21 09:57:58;;;;;;;;;28.50;27.25;;;;;14.70;48.43;102431.09;5000532;28;45331;-72
2022/03/21 10:00:25;;;;;;;;;29.00;25.25;;;;;14.75;48.43;102426.50;4988931;28;45269;-72
2022/03/21 10:02:50;;;;;;;;;28.75;28.00;;;;;14.83;48.11;102419.13;5000941;28;45497;-72
2022/03/21 10:05:36;;;;;;;;;30.00;27.00;;;;;14.92;48.31;102420.75;4995622;28;45309;-72
2022/03/21 10:08:27;;;;;;;;;24.00;22.25;;;;;14.96;47.97;102420.63;4984437;28;45758;-73
2022/03/21 10:10:59;;;;;;;;;26.25;24.75;;;;;15.03;48.07;102424.03;4988690;28;45282;-73
2022/03/21 10:13:36;;;;;;;;;26.00;21.50;;;;;15.06;48.01;102415.03;4986692;28;45491;-73
2022/03/21 10:16:13;;;;;;;;;18.00;17.00;;;;;15.16;47.50;102428.19;4991730;28;46436;-73
2022/03/21 10:18:58;;;;;;;;;19.50;17.50;;;;;15.13;47.47;102414.81;4980724;28;45231;-74
2022/03/21 10:21:28;;;;;;;;;20.00;17.50;;;;;15.26;47.13;102423.47;4990209;28;45463;-73
2022/03/21 10:24:02;;;;;;;;;21.75;21.00;;;;;15.21;47.23;102411.06;4989176;28;45352;-73
2022/03/21 10:26:29;;;;;;;;;21.50;19.75;;;;;15.29;47.00;102414.47;4994368;28;45477;-72
2022/03/21 10:28:56;;;;;;;;;21.50;19.00;;;;;15.30;47.49;102402.75;4989109;28;45467;-72
2022/03/21 10:31:48;;;;;;;;;19.50;19.50;;;;;15.40;47.26;102404.28;4998826;28;45990;-71
2022/03/21 10:34:22;;;;;;;;;17.50;16.25;;;;;15.52;46.78;102416.56;5000210;28;45368;-73
2022/03/21 10:37:03;;;;;;;;;14.25;13.75;;;;;15.56;46.70;102404.78;4987276;28;47132;-72
2022/03/21 10:39:30;;;;;;;;;17.25;14.50;;;;;15.62;46.66;102395.63;4983182;28;45240;-71
2022/03/21 10:42:07;;;;;;;;;20.75;18.00;;;;;15.67;46.43;102393.69;4993368;28;45269;-73
2022/03/21 10:44:34;;;;;;;;;18.50;17.25;;;;;15.68;46.85;102390.97;4994602;28;45452;-73
2022/03/21 10:47:03;;;;;;;;;18.00;18.00;;;;;15.74;46.85;102398.88;4986323;28;45659;-73
2022/03/21 10:49:43;;;;;;;;;13.50;13.50;;;;;15.80;46.89;102384.38;4985994;28;45828;-73
2022/03/21 10:52:15;;;;;;;;;16.50;15.00;;;;;15.92;46.60;102397.53;4999437;28;45406;-73
2022/03/21 10:54:48;;;;;;;;;18.50;17.00;;;;;15.99;46.39;102392.84;4987060;28;45163;-73
2022/03/21 10:57:34;;;;;;;;;18.75;17.75;;;;;16.06;46.50;102391.72;4994222;28;45252;-73
2022/03/21 11:00:23;;;;;;;;;17.25;16.75;;;;;16.07;46.10;102373.75;4997831;28;45237;-74
2022/03/21 11:03:18;;;;;;;;;16.00;16.00;;;;;16.18;45.92;102385.09;4986445;28;45486;-73
2022/03/21 11:05:46;;;;;;;;;19.25;19.00;;;;;16.14;45.73;102372.66;4986990;28;45528;-73
2022/03/21 11:08:15;;;;;;;;;19.25;17.25;;;;;16.07;45.68;102362.97;4989650;28;45502;-73
2022/03/21 11:10:40;;;;;;;;;19.25;18.75;;;;;16.18;45.23;102378.84;4995184;28;45601;-74
2022/03/21 11:13:08;;;;;;;;;15.75;15.50;;;;;16.15;45.40;102366.31;4981878;28;45221;-73
2022/03/21 11:15:35;;;;;;;;;16.25;16.25;;;;;16.24;45.60;102374.16;4987221;28;45759;-74
2022/03/21 11:18:02;;;;;;;;;18.25;16.50;;;;;16.26;45.82;102361.50;4981947;28;47150;-73
2022/03/21 11:20:30;;;;;;;;;17.50;16.25;;;;;16.33;45.79;102366.72;4984629;28;45521;-74
2022/03/21 11:22:57;;;;;;;;;20.00;19.25;;;;;16.42;45.45;102369.09;4995838;28;45689;-74
2022/03/21 11:25:28;;;;;;;;;18.75;17.00;;;;;16.40;45.28;102358.38;4980687;28;45526;-73
2022/03/21 11:28:39;;;;;;;;;19.75;16.00;;;;;16.47;45.32;102359.06;4979586;28;45373;-73
2022/03/21 11:31:22;;;;;;;;;16.25;16.25;;;;;16.51;45.19;102347.28;4989230;28;45327;-73